Time;durP1;ratioP1;P1;durP2;ratioP2;P2;SDS_P1;SDS_P2;PMS_P1;PMS_P2;Temp;Humidity;BMP_temperature;BMP_pressure;BME280_temperature;BME280_humidity;BME280_pressure;Samples;Min_cycle;Max_cycle;Signal;HPM_P1;HPM_P2
2023/03/03 00:00:57;;;;;;;76.00;32.00;;;;;;;1.24;61.78;99214.15;67548;1282;1016011;-60
2023/03/03 00:04:00;;;;;;;84.90;34.50;;;;;;;1.01;62.39;99213.63;67587;1281;1016498;-59
2023/03/03 00:07:02;;;;;;;165.40;66.20;;;;;;;0.88;63.14;99206.27;67578;1282;1016496;-60
2023/03/03 00:10:05;;;;;;;91.50;39.70;;;;;;;1.09;62.43;99206.11;67555;1281;1017038;-59
2023/03/03 00:13:07;;;;;;;;;;;;;;;1.09;62.13;99206.61;67614;1282;1016513;-60
2023/03/03 00:16:09;;;;;;;70.70;31.20;;;;;;;0.94;61.96;99204.96;67619;1281;1018124;-59
2023/03/03 00:19:12;;;;;;;75.10;31.10;;;;;;;0.91;62.37;99205.89;67562;1282;1016450;-60
2023/03/03 00:22:15;;;;;;;68.90;29.40;;;;;;;1.10;62.23;99201.61;67589;1282;1016878;-60
2023/03/03 00:25:18;;;;;;;;;;;;;;;1.20;61.63;99197.81;67617;1282;1016479;-59
2023/03/03 00:28:23;;;;;;;67.10;28.90;;;;;;;1.28;60.87;99199.95;67570;1282;1016510;-60
2023/03/03 00:31:26;;;;;;;79.10;30.50;;;;;;;1.29;60.93;99198.38;67606;1282;1016486;-59
2023/03/03 00:34:29;;;;;;;66.30;27.80;;;;;;;1.21;61.26;99198.85;67549;1282;1016061;-60
2023/03/03 00:37:32;;;;;;;69.50;30.00;;;;;;;1.08;60.96;99199.07;67578;1282;1019375;-59
2023/03/03 00:40:34;;;;;;;;;;;;;;;0.82;61.76;99200.00;67595;1282;1015984;-60
2023/03/03 00:43:36;;;;;;;65.30;28.80;;;;;;;0.57;62.48;99199.67;67546;1282;1016481;-59
2023/03/03 00:46:39;;;;;;;;;;;;;;;0.45;62.57;99199.15;67548;1282;1016489;-60
2023/03/03 00:49:41;;;;;;;71.80;31.20;;;;;;;0.63;62.33;99198.89;67594;1282;1019197;-60
2023/03/03 00:52:44;;;;;;;78.20;30.70;;;;;;;0.61;63.21;99196.52;67585;1281;1016450;-60
2023/03/03 00:55:46;;;;;;;66.00;30.00;;;;;;;0.78;62.75;99192.83;67535;1282;1016608;-59
2023/03/03 00:58:49;;;;;;;63.60;28.20;;;;;;;1.02;62.43;99194.68;67535;1282;1015970;-59
2023/03/03 01:01:51;;;;;;;79.60;33.00;;;;;;;1.39;62.53;99195.09;67585;1282;1018095;-60
2023/03/03 01:04:55;;;;;;;75.60;32.00;;;;;;;1.50;62.32;99194.39;67576;1282;1016312;-60
2023/03/03 01:07:57;;;;;;;74.90;32.60;;;;;;;1.42;62.63;99191.26;67583;1281;1016477;-59
2023/03/03 01:11:00;;;;;;;80.70;33.70;;;;;;;1.33;62.55;99192.63;67592;1282;1016456;-60
2023/03/03 01:14:02;;;;;;;95.70;41.00;;;;;;;1.37;62.76;99192.56;67587;1281;1016478;-60
2023/03/03 01:17:05;;;;;;;92.40;38.80;;;;;;;1.40;63.38;99191.63;67554;1282;1016439;-60
2023/03/03 01:20:07;;;;;;;101.00;44.70;;;;;;;1.53;63.93;99184.66;67512;1281;1016311;-59
2023/03/03 01:23:10;;;;;;;;;;;;;;;1.71;63.96;99179.33;67558;1282;1016178;-59
2023/03/03 01:26:12;;;;;;;99.90;43.90;;;;;;;1.91;63.75;99169.27;67575;1282;1016142;-59
2023/03/03 01:29:14;;;;;;;86.80;39.90;;;;;;;2.17;63.39;99163.25;67589;1282;1016424;-60
2023/03/03 01:32:17;;;;;;;98.50;42.50;;;;;;;2.33;63.27;99158.91;67543;1282;1016034;-59
2023/03/03 01:35:19;;;;;;;102.50;42.20;;;;;;;2.43;63.40;99157.67;67560;1282;1016452;-59
2023/03/03 01:38:22;;;;;;;107.10;45.30;;;;;;;2.48;63.41;99159.11;67603;1282;1016337;-59
2023/03/03 01:41:25;;;;;;;;;;;;;;;2.70;63.43;99161.53;67588;1282;1015793;-59
2023/03/03 01:44:27;;;;;;;;;;;;;;;2.86;63.13;99161.50;67569;1282;1016386;-59
2023/03/03 01:47:30;;;;;;;101.60;43.60;;;;;;;2.88;63.62;99153.66;67580;1282;1016469;-59
2023/03/03 01:50:32;;;;;;;102.70;42.30;;;;;;;3.01;63.29;99156.98;67570;1282;1016456;-59
2023/03/03 01:53:35;;;;;;;106.00;45.60;;;;;;;3.26;62.74;99151.70;67604;1282;1016324;-59
2023/03/03 01:56:37;;;;;;;115.60;48.50;;;;;;;3.40;62.54;99143.38;67560;1282;1016479;-60
2023/03/03 01:59:40;;;;;;;108.80;46.80;;;;;;;3.53;62.16;99139.92;67553;1282;1018668;-60
2023/03/03 02:02:42;;;;;;;120.40;52.80;;;;;;;3.44;62.44;99139.46;67553;1282;1016695;-59
2023/03/03 02:05:44;;;;;;;123.30;57.10;;;;;;;3.35;63.11;99147.85;67592;1281;1016450;-59
2023/03/03 02:08:47;;;;;;;114.80;52.10;;;;;;;3.34;63.34;99140.59;67604;1282;1015944;-60
2023/03/03 02:11:49;;;;;;;118.00;53.60;;;;;;;3.48;63.39;99139.87;67547;1282;1016342;-60
2023/03/03 02:14:52;;;;;;;115.00;50.70;;;;;;;3.67;63.16;99130.37;67578;1282;1016797;-60
2023/03/03 02:17:54;;;;;;;;;;;;;;;3.62;63.00;99126.88;67597;1282;1016456;-60
2023/03/03 02:20:57;;;;;;;121.50;53.50;;;;;;;3.65;63.17;99129.05;67600;1282;1016240;-60
2023/03/03 02:23:59;;;;;;;127.80;55.00;;;;;;;3.65;63.28;99127.48;67539;1282;1016513;-60
2023/03/03 02:27:02;;;;;;;127.10;55.80;;;;;;;3.62;63.79;99127.73;67566;1282;1016226;-60
2023/03/03 02:30:04;;;;;;;120.50;55.60;;;;;;;3.73;63.56;99125.03;67563;1282;1017353;-60
2023/03/03 02:33:06;;;;;;;116.20;52.70;;;;;;;3.81;63.40;99121.86;67568;1282;1018333;-59
2023/03/03 02:36:09;;;;;;;115.00;52.70;;;;;;;3.82;63.71;99128.05;67575;1282;1016472;-60
2023/03/03 02:39:11;;;;;;;112.00;50.00;;;;;;;3.90;63.99;99129.70;67576;1282;1015725;-60
2023/03/03 02:42:14;;;;;;;109.80;50.70;;;;;;;4.02;63.23;99129.37;67564;1282;1016542;-60
2023/03/03 02:45:16;;;;;;;115.80;51.80;;;;;;;3.94;63.18;99122.18;67546;1282;1016466;-60
2023/03/03 02:48:19;;;;;;;115.20;52.30;;;;;;;3.88;63.31;99111.96;67569;1282;1016475;-59
2023/03/03 02:51:21;;;;;;;123.00;54.20;;;;;;;3.91;64.09;99113.60;67586;1282;1016474;-59
2023/03/03 02:54:23;;;;;;;116.30;53.40;;;;;;;4.03;63.71;99109.77;67586;1282;1016421;-60
2023/03/03 02:57:27;;;;;;;122.20;53.30;;;;;;;4.00;63.25;99110.75;67595;1282;1016518;-60
2023/03/03 03:00:29;;;;;;;125.00;55.50;;;;;;;3.92;63.17;99104.59;67596;1282;1016444;-60
2023/03/03 03:03:32;;;;;;;129.80;54.50;;;;;;;3.72;63.88;99111.03;67557;1282;1016500;-59
2023/03/03 03:06:34;;;;;;;146.80;64.50;;;;;;;3.36;64.88;99112.03;67549;1282;1016820;-60
2023/03/03 03:09:37;;;;;;;148.50;67.30;;;;;;;3.20;65.36;99108.13;67571;1282;1016108;-60
2023/03/03 03:12:41;;;;;;;146.70;67.60;;;;;;;3.22;65.47;99100.13;67581;1282;1016213;-60
2023/03/03 03:15:43;;;;;;;145.30;63.20;;;;;;;3.28;65.59;99098.26;67577;1282;1016021;-59
2023/03/03 03:18:46;;;;;;;142.50;65.10;;;;;;;3.39;65.45;99102.95;67553;1282;1016454;-59
2023/03/03 03:21:48;;;;;;;141.10;62.00;;;;;;;3.34;66.02;99099.29;67532;1282;1016293;-59
2023/03/03 03:24:50;;;;;;;122.00;53.20;;;;;;;3.48;66.29;99096.67;67538;1282;1016121;-59
2023/03/03 03:27:53;;;;;;;109.80;50.80;;;;;;;3.53;65.96;99099.11;67522;1282;1016390;-60
2023/03/03 03:30:57;;;;;;;125.30;54.90;;;;;;;3.45;65.77;99101.08;67492;1282;1016414;-60
2023/03/03 03:34:00;;;;;;;112.20;51.70;;;;;;;3.34;65.95;99104.30;67530;1282;1016489;-60
2023/03/03 03:37:02;;;;;;;114.70;52.60;;;;;;;3.37;65.85;99115.11;67529;1282;1016500;-60
2023/03/03 03:40:05;;;;;;;122.20;55.40;;;;;;;3.31;66.90;99119.23;67497;1282;1016142;-59
2023/03/03 03:43:10;;;;;;;111.10;51.60;;;;;;;3.28;67.02;99121.75;67528;1282;1016474;-60
2023/03/03 03:46:13;;;;;;;118.60;54.50;;;;;;;3.20;67.15;99117.45;67545;1282;1016313;-60
2023/03/03 03:49:15;;;;;;;122.40;58.20;;;;;;;3.18;67.59;99116.13;67536;1282;1016939;-60
2023/03/03 03:52:17;;;;;;;135.40;63.00;;;;;;;3.25;67.91;99110.25;67511;1282;1016058;-59
2023/03/03 03:55:21;;;;;;;158.50;65.80;;;;;;;3.35;68.59;99110.52;67564;1282;1016526;-60
2023/03/03 03:58:23;;;;;;;137.00;64.70;;;;;;;3.49;68.23;99110.45;67522;1281;1016459;-59
2023/03/03 04:01:26;;;;;;;148.10;60.90;;;;;;;3.58;68.52;99114.35;67597;1282;1016495;-60
2023/03/03 04:04:28;;;;;;;139.20;58.20;;;;;;;3.57;69.31;99112.16;67590;1281;1016278;-60
2023/03/03 04:07:31;;;;;;;144.90;60.20;;;;;;;3.36;70.72;99113.59;67539;1282;1017189;-60
2023/03/03 04:10:33;;;;;;;143.20;60.30;;;;;;;3.43;71.15;99115.13;67559;1282;1016487;-59
2023/03/03 04:13:35;;;;;;;146.10;62.00;;;;;;;3.40;71.84;99117.11;67553;1282;1016846;-59
2023/03/03 04:16:38;;;;;;;146.50;60.90;;;;;;;3.26;73.18;99115.39;67547;1281;1016337;-60
2023/03/03 04:19:40;;;;;;;148.20;59.30;;;;;;;3.39;73.24;99107.79;67600;1282;1016498;-60
2023/03/03 04:22:43;;;;;;;149.20;59.50;;;;;;;3.42;73.78;99106.33;67595;1281;1016327;-60
2023/03/03 04:25:45;;;;;;;148.10;57.70;;;;;;;3.51;74.36;99100.19;67556;1282;1016309;-59
2023/03/03 04:28:48;;;;;;;149.80;56.90;;;;;;;3.40;75.70;99103.44;67531;1282;1016312;-60
2023/03/03 04:31:50;;;;;;;137.50;52.70;;;;;;;3.37;76.92;99109.23;67545;1282;1016498;-60
2023/03/03 04:34:53;;;;;;;120.60;48.20;;;;;;;3.24;78.89;99108.36;67573;1282;1016940;-60
2023/03/03 04:37:55;;;;;;;128.70;48.60;;;;;;;3.09;79.45;99102.89;67592;1282;1016331;-59
2023/03/03 04:40:57;;;;;;;134.80;47.60;;;;;;;3.08;79.89;99107.39;67536;1282;1018178;-60
2023/03/03 04:44:00;;;;;;;125.80;47.50;;;;;;;3.01;80.96;99108.09;67563;1282;1016055;-61
2023/03/03 04:47:02;;;;;;;129.30;48.30;;;;;;;2.95;82.05;99114.64;67574;1282;1016442;-59
2023/03/03 04:50:06;;;;;;;129.40;48.90;;;;;;;2.97;83.72;99119.61;67539;1282;1016376;-61
2023/03/03 04:53:08;;;;;;;119.80;47.30;;;;;;;2.95;83.44;99123.80;67571;1282;1016472;-61
2023/03/03 04:56:10;;;;;;;130.00;47.40;;;;;;;2.94;84.94;99132.46;67581;1281;1016516;-62
2023/03/03 04:59:13;;;;;;;133.40;49.70;;;;;;;3.08;82.79;99128.14;67592;1281;1016364;-59
2023/03/03 05:02:16;;;;;;;129.00;48.50;;;;;;;3.16;81.85;99126.89;67561;1281;1019119;-60
2023/03/03 05:05:18;;;;;;;133.40;51.40;;;;;;;3.11;81.74;99127.02;67590;1282;1016178;-60
2023/03/03 05:08:21;;;;;;;148.90;52.80;;;;;;;3.18;81.61;99119.05;67555;1281;1015850;-59
2023/03/03 05:11:23;;;;;;;154.80;53.90;;;;;;;2.84;85.47;99121.83;67543;1281;1016314;-60
2023/03/03 05:14:26;;;;;;;135.40;50.20;;;;;;;2.98;85.77;99121.64;67564;1282;1016433;-60
2023/03/03 05:17:28;;;;;;;150.90;50.70;;;;;;;3.01;85.17;99131.25;67542;1281;1018651;-59
2023/03/03 05:20:30;;;;;;;155.50;53.40;;;;;;;2.98;85.88;99128.39;67570;1282;1016944;-59
2023/03/03 05:23:33;;;;;;;140.70;52.60;;;;;;;3.08;84.88;99128.30;67582;1281;1016052;-60
2023/03/03 05:26:35;;;;;;;158.70;55.90;;;;;;;3.00;85.91;99128.15;67535;1281;1016276;-60
2023/03/03 05:29:38;;;;;;;141.60;52.40;;;;;;;3.08;85.58;99128.13;67547;1281;1016288;-59
2023/03/03 05:32:40;;;;;;;149.50;53.60;;;;;;;3.06;86.35;99127.14;65347;1282;5368389;-60
2023/03/03 05:35:43;;;;;;;;;;;;;;;3.12;85.99;99130.45;67596;1281;1015801;-59
2023/03/03 05:38:45;;;;;;;153.10;54.60;;;;;;;3.09;86.74;99131.21;67527;1282;1016363;-59
2023/03/03 05:41:48;;;;;;;151.20;53.40;;;;;;;3.09;87.07;99128.80;67542;1281;1016286;-60
2023/03/03 05:44:50;;;;;;;159.40;54.50;;;;;;;3.13;86.67;99123.17;67578;1282;1016431;-60
2023/03/03 05:47:52;;;;;;;155.50;58.30;;;;;;;3.10;87.06;99126.70;67567;1281;1016395;-60
2023/03/03 05:50:55;;;;;;;181.50;63.00;;;;;;;3.22;87.33;99112.03;67575;1281;1016308;-59
2023/03/03 05:53:57;;;;;;;179.90;64.90;;;;;;;3.43;86.07;99106.98;67575;1281;1016219;-60
2023/03/03 05:57:00;;;;;;;156.70;53.10;;;;;;;3.50;85.50;99107.32;67560;1282;1016421;-60
2023/03/03 06:00:03;;;;;;;135.60;48.80;;;;;;;3.47;85.40;99117.59;67500;1281;1016925;-59
2023/03/03 06:03:06;;;;;;;143.20;50.90;;;;;;;3.42;85.04;99112.72;67517;1281;1016391;-59
2023/03/03 06:06:09;;;;;;;141.20;50.30;;;;;;;3.35;85.73;99113.45;67498;1281;1018904;-60
2023/03/03 06:09:11;;;;;;;;;;;;;;;3.35;86.12;99106.71;67549;1282;1016323;-59
2023/03/03 06:12:13;;;;;;;144.70;49.70;;;;;;;3.35;86.71;99104.29;67568;1282;1016884;-60
2023/03/03 06:15:16;;;;;;;155.50;52.60;;;;;;;3.30;86.96;99111.15;67512;1281;1016333;-59
2023/03/03 06:18:18;;;;;;;136.20;48.30;;;;;;;3.29;87.03;99113.27;67529;1282;1016343;-60
2023/03/03 06:21:21;;;;;;;143.60;49.40;;;;;;;3.14;88.72;99126.77;67582;1282;1016130;-59
2023/03/03 06:24:28;;;;;;;128.30;46.60;;;;;;;3.08;89.60;99126.40;67578;1282;1015983;-59
2023/03/03 06:27:31;;;;;;;104.20;37.10;;;;;;;3.13;89.61;99117.64;67605;1281;1016345;-60
2023/03/03 06:30:33;;;;;;;128.70;46.80;;;;;;;3.24;89.55;99111.99;67594;1281;1016200;-59
2023/03/03 06:33:37;;;;;;;123.20;44.30;;;;;;;3.20;89.94;99121.60;67563;1282;1016559;-60
2023/03/03 06:36:39;;;;;;;100.60;36.80;;;;;;;3.31;89.94;99122.36;67588;1282;1018171;-59
2023/03/03 06:39:42;;;;;;;101.30;36.90;;;;;;;3.17;91.38;99119.61;67546;1282;1016064;-59
2023/03/03 06:42:44;;;;;;;98.70;35.90;;;;;;;3.26;90.68;99112.46;67556;1282;1016291;-60
2023/03/03 06:45:47;;;;;;;95.80;35.10;;;;;;;3.24;91.52;99109.22;67572;1282;1016496;-60
2023/03/03 06:48:49;;;;;;;100.60;36.80;;;;;;;3.27;90.94;99116.58;67580;1282;1016401;-60
2023/03/03 06:51:52;;;;;;;101.60;36.80;;;;;;;3.40;89.78;99120.39;67582;1282;1018118;-59
2023/03/03 06:54:54;;;;;;;104.00;39.10;;;;;;;3.44;91.53;99127.17;67523;1282;1016497;-60
2023/03/03 06:57:56;;;;;;;112.90;39.60;;;;;;;3.47;90.86;99117.77;67522;1282;1016382;-60
2023/03/03 07:00:59;;;;;;;94.20;34.80;;;;;;;3.44;90.69;99104.70;67549;1282;1019334;-60
2023/03/03 07:04:01;;;;;;;101.80;36.50;;;;;;;3.55;90.14;99096.80;67581;1282;1016492;-59
2023/03/03 07:07:04;;;;;;;90.90;33.20;;;;;;;3.57;89.85;99104.70;67562;1282;1016358;-60
2023/03/03 07:10:06;;;;;;;93.80;31.80;;;;;;;3.53;91.23;99110.02;67569;1281;1016777;-60
2023/03/03 07:13:10;;;;;;;;;;;;;;;3.47;91.20;99129.53;67540;1282;1016254;-59
2023/03/03 07:16:14;;;;;;;72.90;27.00;;;;;;;3.70;89.17;99139.99;67574;1281;1016521;-59
2023/03/03 07:19:16;;;;;;;62.60;22.40;;;;;;;3.63;88.93;99139.30;67535;1275;1016501;-59
2023/03/03 07:22:18;;;;;;;61.00;21.90;;;;;;;3.58;89.13;99138.75;67524;1281;1018320;-59
2023/03/03 07:25:21;;;;;;;69.30;24.80;;;;;;;3.62;88.83;99150.22;67528;1282;1016289;-59
2023/03/03 07:28:23;;;;;;;;;;;;;;;3.67;88.18;99154.60;67560;1282;1016398;-60
2023/03/03 07:31:26;;;;;;;63.50;23.10;;;;;;;3.53;90.38;99161.38;67522;1282;1016535;-59
2023/03/03 07:34:29;;;;;;;62.90;22.40;;;;;;;3.66;89.43;99156.17;67522;1282;1018846;-59
2023/03/03 07:37:31;;;;;;;63.50;23.10;;;;;;;3.45;90.87;99155.53;67579;1281;1016469;-59
2023/03/03 07:40:34;;;;;;;70.10;23.60;;;;;;;3.43;90.96;99157.98;67554;1281;1016474;-59
2023/03/03 07:43:36;;;;;;;68.10;21.80;;;;;;;3.48;91.51;99148.36;67556;1281;1016362;-59
2023/03/03 07:46:40;;;;;;;;;;;;;;;3.58;91.03;99144.45;67543;1281;1015989;-60
2023/03/03 07:49:42;;;;;;;66.70;25.90;;;;;;;3.65;89.92;99137.88;67548;1281;1015935;-59
2023/03/03 07:52:45;;;;;;;73.40;26.90;;;;;;;3.68;89.34;99130.70;67517;1281;1016728;-59
2023/03/03 07:55:47;;;;;;;67.60;23.60;;;;;;;3.66;90.29;99124.18;67578;1281;1017241;-60
2023/03/03 07:58:50;;;;;;;;;;;;;;;3.71;89.47;99136.15;67575;1281;1016481;-60
2023/03/03 08:01:54;;;;;;;68.90;25.50;;;;;;;3.78;89.79;99138.36;67554;1281;1016256;-59
2023/03/03 08:04:56;;;;;;;64.80;22.70;;;;;;;3.78;89.56;99147.34;67552;1281;1016287;-60
2023/03/03 08:07:58;;;;;;;65.10;24.30;;;;;;;3.77;88.80;99147.21;67517;1281;1016408;-60
2023/03/03 08:11:01;;;;;;;61.70;23.80;;;;;;;3.79;87.86;99143.70;67561;1281;1016528;-59
2023/03/03 08:14:03;;;;;;;64.60;24.60;;;;;;;3.88;87.64;99142.41;67586;1281;1016649;-59
2023/03/03 08:17:06;;;;;;;69.00;25.50;;;;;;;3.80;88.42;99155.08;67565;1281;1016503;-59
2023/03/03 08:20:08;;;;;;;67.80;24.50;;;;;;;3.75;88.20;99155.58;67583;1281;1016268;-60
2023/03/03 08:23:11;;;;;;;63.50;23.40;;;;;;;3.71;88.35;99150.33;67539;1281;1016317;-60
2023/03/03 08:26:13;;;;;;;69.00;23.60;;;;;;;3.77;88.14;99157.93;67520;1281;1016034;-59
2023/03/03 08:29:16;;;;;;;67.60;24.60;;;;;;;3.84;86.98;99169.52;67553;1282;1016454;-60
2023/03/03 08:32:18;;;;;;;63.90;22.30;;;;;;;3.86;86.64;99167.05;67602;1282;1016127;-60
2023/03/03 08:35:21;;;;;;;65.70;23.30;;;;;;;3.81;86.58;99157.16;67539;1282;1016405;-60
2023/03/03 08:38:23;;;;;;;63.40;23.60;;;;;;;3.83;87.21;99151.72;67556;1281;1016210;-60
2023/03/03 08:41:26;;;;;;;62.30;22.70;;;;;;;3.96;86.44;99153.60;67606;1281;1016537;-60
2023/03/03 08:44:28;;;;;;;65.40;24.50;;;;;;;4.10;84.76;99157.34;67570;1281;1016509;-60
2023/03/03 08:47:31;;;;;;;58.60;22.50;;;;;;;4.19;85.76;99164.35;67584;1281;1016945;-59
2023/03/03 08:50:33;;;;;;;64.40;24.50;;;;;;;4.34;83.40;99167.56;67542;1282;1016395;-59
2023/03/03 08:53:37;;;;;;;59.50;21.80;;;;;;;4.43;81.15;99161.91;67557;1281;1016416;-60
2023/03/03 08:56:39;;;;;;;64.20;23.60;;;;;;;4.58;79.58;99128.36;67543;1282;1016495;-59
2023/03/03 08:59:41;;;;;;;72.90;25.30;;;;;;;4.67;80.07;99145.42;67547;1281;1016213;-60
2023/03/03 09:02:44;;;;;;;64.70;24.00;;;;;;;4.59;80.47;99144.45;67590;1282;1016485;-60
2023/03/03 09:05:47;;;;;;;65.70;23.20;;;;;;;4.39;80.33;99144.73;67595;1282;1016357;-59
2023/03/03 09:08:49;;;;;;;65.50;25.20;;;;;;;4.37;80.36;99143.41;67545;1282;1016351;-59
2023/03/03 09:11:52;;;;;;;65.20;24.70;;;;;;;4.42;80.19;99156.91;67585;1282;1016416;-60
2023/03/03 09:14:54;;;;;;;65.80;25.10;;;;;;;4.51;79.82;99157.70;67594;1282;1016271;-59
2023/03/03 09:18:00;;;;;;;61.60;22.50;;;;;;;4.54;79.04;99158.80;67525;1282;1016439;-60
2023/03/03 09:21:02;;;;;;;66.50;25.20;;;;;;;4.70;79.09;99164.20;67564;1282;1016882;-59
2023/03/03 09:24:04;;;;;;;70.60;25.30;;;;;;;4.78;79.07;99171.20;67584;1282;1016464;-60
2023/03/03 09:27:07;;;;;;;69.70;26.00;;;;;;;4.92;78.60;99165.41;67530;1281;1016390;-59
2023/03/03 09:30:09;;;;;;;69.90;26.30;;;;;;;4.82;79.33;99170.57;67512;1282;1016469;-59
2023/03/03 09:33:12;;;;;;;65.10;25.90;;;;;;;4.76;81.44;99171.10;67595;1282;1016266;-59
2023/03/03 09:36:14;;;;;;;68.20;27.00;;;;;;;4.69;81.32;99177.22;67574;1281;1016506;-59
2023/03/03 09:39:17;;;;;;;72.30;25.30;;;;;;;4.58;82.30;99171.83;67576;1282;1016363;-60
2023/03/03 09:42:20;;;;;;;69.10;24.20;;;;;;;4.44;81.58;99169.83;67558;1282;1016385;-60
2023/03/03 09:45:22;;;;;;;70.00;25.70;;;;;;;4.67;79.18;99171.58;67566;1282;1015919;-59
2023/03/03 09:48:24;;;;;;;66.00;25.60;;;;;;;4.70;79.91;99177.03;67587;1282;1016295;-59
2023/03/03 09:51:27;;;;;;;62.20;22.40;;;;;;;4.80;78.28;99183.29;67546;1281;1016474;-60
2023/03/03 09:54:29;;;;;;;66.60;23.90;;;;;;;4.85;77.14;99176.88;67533;1281;1016414;-60
2023/03/03 09:57:32;;;;;;;68.20;23.70;;;;;;;4.72;78.36;99176.77;67582;1282;1016315;-59
2023/03/03 10:00:34;;;;;;;59.90;22.20;;;;;;;4.83;78.23;99185.28;67566;1282;1016125;-60
2023/03/03 10:03:36;;;;;;;64.90;24.00;;;;;;;4.85;76.79;99196.48;67576;1281;1016127;-59
2023/03/03 10:06:39;;;;;;;62.20;23.60;;;;;;;4.87;77.37;99196.92;67542;1281;1016367;-60
2023/03/03 10:09:41;;;;;;;58.00;21.70;;;;;;;5.11;75.78;99192.17;67523;1282;1016328;-59
2023/03/03 10:12:44;;;;;;;51.40;20.90;;;;;;;5.32;73.47;99196.52;67586;1281;1016502;-59
2023/03/03 10:15:46;;;;;;;57.10;21.70;;;;;;;5.39;72.65;99199.92;67594;1281;1016386;-59
2023/03/03 10:18:49;;;;;;;58.10;21.60;;;;;;;5.63;72.09;99206.73;67567;1282;1016954;-59
2023/03/03 10:21:51;;;;;;;57.30;21.60;;;;;;;5.76;70.96;99199.67;67546;1281;1016250;-60
2023/03/03 10:24:54;;;;;;;62.20;23.60;;;;;;;5.86;70.77;99193.08;67546;1281;1016092;-60
2023/03/03 10:27:56;;;;;;;61.60;24.00;;;;;;;5.81;70.44;99192.23;67555;1281;1016273;-60
2023/03/03 10:31:03;;;;;;;59.10;23.00;;;;;;;5.80;70.83;99184.96;67578;1281;1016427;-59
2023/03/03 10:34:05;;;;;;;55.50;22.20;;;;;;;5.89;69.93;99183.44;67527;1281;1015850;-60
2023/03/03 10:37:08;;;;;;;64.00;22.70;;;;;;;6.12;70.35;99177.11;67523;1281;1016195;-59
2023/03/03 10:40:10;;;;;;;58.60;24.10;;;;;;;6.23;69.81;99170.07;67545;1282;1018909;-60
2023/03/03 10:43:13;;;;;;;62.70;24.00;;;;;;;6.27;68.50;99166.46;67546;1282;1016408;-59
2023/03/03 10:46:16;;;;;;;60.00;22.20;;;;;;;6.13;68.51;99165.42;67513;1282;1016370;-60
2023/03/03 10:49:18;;;;;;;59.10;25.10;;;;;;;6.23;69.79;99161.90;67534;1282;1017275;-60
2023/03/03 10:52:21;;;;;;;60.30;23.70;;;;;;;6.30;68.35;99158.00;67528;1282;1016491;-60
2023/03/03 10:55:24;;;;;;;62.30;22.60;;;;;;;6.39;68.27;99153.51;67569;1282;1015891;-60
2023/03/03 10:58:26;;;;;;;;;;;;;;;6.46;67.23;99147.85;67537;1282;1016222;-59
2023/03/03 11:01:28;;;;;;;59.00;22.60;;;;;;;6.43;67.15;99147.94;67517;1281;1016339;-60
2023/03/03 11:04:31;;;;;;;62.40;23.80;;;;;;;6.58;67.31;99143.38;67541;1282;1016327;-60
2023/03/03 11:07:33;;;;;;;59.40;23.60;;;;;;;6.68;66.28;99145.92;67574;1281;1016357;-59
2023/03/03 11:10:36;;;;;;;60.00;23.30;;;;;;;6.70;66.22;99146.20;67560;1281;1016931;-60
2023/03/03 11:13:38;;;;;;;58.60;21.20;;;;;;;6.66;66.51;99145.67;67529;1281;1015854;-59
2023/03/03 11:16:40;;;;;;;58.80;22.40;;;;;;;6.36;66.09;99150.48;67535;1281;1017631;-60
2023/03/03 11:19:43;;;;;;;58.90;21.80;;;;;;;6.28;66.59;99151.67;67564;1281;1017617;-59
2023/03/03 11:22:46;;;;;;;;;;;;;;;6.33;66.80;99146.77;67596;1281;1016380;-59
2023/03/03 11:25:48;;;;;;;53.60;21.10;;;;;;;6.40;66.88;99141.47;67527;1281;1016329;-60
2023/03/03 11:28:50;;;;;;;56.50;22.30;;;;;;;6.43;67.20;99134.95;67551;1281;1016294;-60
2023/03/03 11:31:53;;;;;;;60.30;24.00;;;;;;;6.47;66.64;99127.65;67593;1281;1016475;-59
2023/03/03 11:34:55;;;;;;;55.20;21.30;;;;;;;6.59;66.09;99131.35;67582;1280;1016325;-60
2023/03/03 11:37:58;;;;;;;56.30;21.20;;;;;;;6.69;66.97;99123.11;67597;1281;1016407;-60
2023/03/03 11:41:01;;;;;;;60.00;21.90;;;;;;;6.87;65.79;99116.17;67563;1281;1016990;-61
2023/03/03 11:44:04;;;;;;;56.30;21.50;;;;;;;7.07;65.62;99115.69;67553;1281;1016160;-60
2023/03/03 11:47:07;;;;;;;59.30;22.10;;;;;;;7.09;64.11;99112.98;67537;1281;1016469;-60
2023/03/03 11:50:09;;;;;;;54.90;20.70;;;;;;;6.91;64.48;99107.82;67592;1281;1016407;-60
2023/03/03 11:53:12;;;;;;;59.40;21.80;;;;;;;6.97;64.37;99107.58;67587;1281;1016466;-60
2023/03/03 11:56:16;;;;;;;56.20;20.00;;;;;;;7.01;63.71;99106.55;67540;1281;1016371;-60
2023/03/03 11:59:22;;;;;;;56.00;20.40;;;;;;;7.13;64.05;99105.52;67590;1281;1016332;-60
2023/03/03 12:02:24;;;;;;;54.30;21.30;;;;;;;7.15;63.75;99101.45;67547;1281;1016199;-59
2023/03/03 12:05:27;;;;;;;55.50;21.40;;;;;;;7.11;63.76;99093.92;67534;1281;1016484;-60
2023/03/03 12:08:29;;;;;;;56.10;20.10;;;;;;;7.14;63.57;99091.36;67552;1281;1016299;-60
2023/03/03 12:11:31;;;;;;;53.20;20.00;;;;;;;6.90;63.41;99099.67;67546;1281;1016179;-60
2023/03/03 12:14:34;;;;;;;49.20;19.30;;;;;;;6.75;65.70;99096.47;67588;1281;1016348;-60
2023/03/03 12:17:36;;;;;;;54.60;20.40;;;;;;;6.66;65.71;99096.31;67600;1281;1016260;-59
2023/03/03 12:20:39;;;;;;;53.50;21.20;;;;;;;6.87;66.06;99093.04;67567;1281;1016442;-59
2023/03/03 12:23:41;;;;;;;50.00;19.00;;;;;;;6.74;65.27;99089.90;67539;1281;1019800;-60
2023/03/03 12:26:44;;;;;;;49.10;19.10;;;;;;;6.53;65.49;99084.52;67605;1281;1016451;-59
2023/03/03 12:29:50;;;;;;;44.30;16.50;;;;;;;6.56;66.71;99084.21;67578;1281;1016819;-60
2023/03/03 12:32:55;;;;;;;45.60;16.40;;;;;;;6.67;65.19;99083.23;67592;1281;1016611;-60
2023/03/03 12:35:57;;;;;;;43.30;16.60;;;;;;;6.69;65.38;99085.05;67573;1281;1016249;-60
2023/03/03 12:39:00;;;;;;;46.40;17.40;;;;;;;6.94;65.65;99086.66;67613;1281;1016434;-60
2023/03/03 12:42:02;;;;;;;48.10;17.40;;;;;;;6.98;64.85;99098.84;67600;1281;1016439;-60
2023/03/03 12:45:04;;;;;;;44.40;16.10;;;;;;;7.00;64.40;99105.54;67573;1281;1016387;-60
2023/03/03 12:48:07;;;;;;;42.60;15.60;;;;;;;6.84;64.00;99113.85;67568;1281;1019088;-60
2023/03/03 12:51:09;;;;;;;45.50;17.90;;;;;;;6.76;64.72;99113.62;67536;1281;1018196;-60
2023/03/03 12:54:12;;;;;;;45.00;15.30;;;;;;;6.58;65.71;99120.95;67581;1282;1016236;-60
2023/03/03 12:57:14;;;;;;;46.00;16.20;;;;;;;6.56;66.21;99115.67;67603;1282;1016407;-60
2023/03/03 13:00:17;;;;;;;41.40;16.00;;;;;;;6.61;66.03;99113.53;67585;1282;1016342;-60
2023/03/03 13:03:19;;;;;;;40.00;15.30;;;;;;;6.66;65.47;99115.44;67566;1281;1015984;-60
2023/03/03 13:06:22;;;;;;;42.70;15.60;;;;;;;6.67;65.82;99105.65;67571;1281;1016268;-60
2023/03/03 13:09:24;;;;;;;42.90;16.10;;;;;;;6.59;65.85;99107.91;67565;1282;1016781;-59
2023/03/03 13:12:26;;;;;;;46.30;16.90;;;;;;;6.50;66.40;99112.09;67592;1281;1016372;-60
2023/03/03 13:15:29;;;;;;;43.10;16.20;;;;;;;6.51;66.72;99110.63;67545;1282;1016338;-60
2023/03/03 13:18:31;;;;;;;42.60;15.90;;;;;;;6.54;66.25;99111.41;67595;1282;1016285;-61
2023/03/03 13:21:34;;;;;;;47.30;17.40;;;;;;;6.47;66.38;99111.48;67566;1282;1016064;-59
2023/03/03 13:24:36;;;;;;;44.10;17.10;;;;;;;6.47;66.53;99108.73;67547;1282;1016390;-60
2023/03/03 13:27:39;;;;;;;44.40;16.40;;;;;;;6.50;66.27;99109.46;67564;1282;1016511;-59
2023/03/03 13:30:42;;;;;;;41.80;16.70;;;;;;;6.50;66.16;99107.20;67581;1282;1016535;-60
2023/03/03 13:33:48;;;;;;;48.70;16.00;;;;;;;6.43;66.42;99111.46;67584;1282;1016430;-60
2023/03/03 13:36:51;;;;;;;44.50;16.40;;;;;;;6.30;66.77;99107.46;67604;1282;1016364;-60
2023/03/03 13:39:53;;;;;;;44.60;17.20;;;;;;;6.36;67.36;99105.99;67575;1282;1016391;-60
2023/03/03 13:42:56;;;;;;;45.40;17.70;;;;;;;6.40;67.13;99110.36;67563;1282;1016332;-60
2023/03/03 13:45:58;;;;;;;48.00;17.70;;;;;;;6.35;67.49;99111.45;67550;1282;1016533;-60
2023/03/03 13:49:00;;;;;;;45.70;17.50;;;;;;;6.34;67.85;99111.14;67543;1281;1016125;-60
2023/03/03 13:52:03;;;;;;;46.40;17.80;;;;;;;6.31;67.48;99106.77;67591;1282;1018798;-60